sensor_id;sensor_type;location;lat;lon;timestamp;temperature;humidity
13699;DHT22;6921;53.642;9.956;2023-11-19T00:00:15;5.50;99.90
13699;DHT22;6921;53.642;9.956;2023-11-19T00:12:37;5.50;99.90
13699;DHT22;6921;53.642;9.956;2023-11-19T00:14:41;5.50;99.90
13699;DHT22;6921;53.642;9.956;2023-11-19T00:16:44;5.40;99.90
13699;DHT22;6921;53.642;9.956;2023-11-19T00:31:11;5.50;99.90
13699;DHT22;6921;53.642;9.956;2023-11-19T00:47:41;5.60;99.90
13699;DHT22;6921;53.642;9.956;2023-11-19T01:00:04;5.60;99.90
13699;DHT22;6921;53.642;9.956;2023-11-19T01:04:17;5.60;99.90
13699;DHT22;6921;53.642;9.956;2023-11-19T01:06:27;5.60;99.90
13699;DHT22;6921;53.642;9.956;2023-11-19T01:21:02;5.60;99.90
13699;DHT22;6921;53.642;9.956;2023-11-19T01:29:16;5.70;99.90
13699;DHT22;6921;53.642;9.956;2023-11-19T01:37:30;5.70;99.90
13699;DHT22;6921;53.642;9.956;2023-11-19T01:41:37;5.70;99.90
13699;DHT22;6921;53.642;9.956;2023-11-19T01:47:49;5.70;99.90
13699;DHT22;6921;53.642;9.956;2023-11-19T01:51:57;5.70;99.90
13699;DHT22;6921;53.642;9.956;2023-11-19T01:54:02;5.70;99.90
13699;DHT22;6921;53.642;9.956;2023-11-19T01:56:08;5.70;99.90
13699;DHT22;6921;53.642;9.956;2023-11-19T01:58:15;5.70;99.90
13699;DHT22;6921;53.642;9.956;2023-11-19T02:02:23;5.70;99.90
13699;DHT22;6921;53.642;9.956;2023-11-19T02:06:33;5.70;99.90
13699;DHT22;6921;53.642;9.956;2023-11-19T02:10:42;5.80;99.90
13699;DHT22;6921;53.642;9.956;2023-11-19T02:25:07;5.80;99.90
13699;DHT22;6921;53.642;9.956;2023-11-19T02:27:19;5.80;99.90
13699;DHT22;6921;53.642;9.956;2023-11-19T02:29:26;5.80;99.90
13699;DHT22;6921;53.642;9.956;2023-11-19T02:35:37;5.80;99.90
13699;DHT22;6921;53.642;9.956;2023-11-19T02:45:57;5.90;99.90
13699;DHT22;6921;53.642;9.956;2023-11-19T02:50:04;5.90;99.90
13699;DHT22;6921;53.642;9.956;2023-11-19T03:02:41;6.00;99.90
13699;DHT22;6921;53.642;9.956;2023-11-19T03:13:02;6.00;99.90
13699;DHT22;6921;53.642;9.956;2023-11-19T03:15:06;6.00;99.90
13699;DHT22;6921;53.642;9.956;2023-11-19T03:19:14;6.10;99.90
13699;DHT22;6921;53.642;9.956;2023-11-19T03:21:29;6.10;99.90
13699;DHT22;6921;53.642;9.956;2023-11-19T03:35:57;6.30;99.90
13699;DHT22;6921;53.642;9.956;2023-11-19T03:40:05;6.30;99.90
13699;DHT22;6921;53.642;9.956;2023-11-19T03:52:29;6.50;99.90
13699;DHT22;6921;53.642;9.956;2023-11-19T04:09:10;6.60;99.90
13699;DHT22;6921;53.642;9.956;2023-11-19T04:25:38;6.80;99.90
13699;DHT22;6921;53.642;9.956;2023-11-19T04:40:04;7.00;99.90
13699;DHT22;6921;53.642;9.956;2023-11-19T04:42:10;7.00;99.90
13699;DHT22;6921;53.642;9.956;2023-11-19T04:58:40;7.10;99.90
13699;DHT22;6921;53.642;9.956;2023-11-19T05:09:00;7.30;99.90
13699;DHT22;6921;53.642;9.956;2023-11-19T05:15:13;7.30;99.90
13699;DHT22;6921;53.642;9.956;2023-11-19T05:31:43;7.60;99.90
13699;DHT22;6921;53.642;9.956;2023-11-19T05:48:16;8.40;99.90
13699;DHT22;6921;53.642;9.956;2023-11-19T06:04:52;9.40;99.90
13699;DHT22;6921;53.642;9.956;2023-11-19T06:21:38;9.50;99.90
13699;DHT22;6921;53.642;9.956;2023-11-19T06:36:04;10.00;99.90
13699;DHT22;6921;53.642;9.956;2023-11-19T06:38:10;10.00;99.90
13699;DHT22;6921;53.642;9.956;2023-11-19T06:52:34;10.30;99.90
13699;DHT22;6921;53.642;9.956;2023-11-19T06:54:40;10.30;99.90
13699;DHT22;6921;53.642;9.956;2023-11-19T07:11:14;10.60;99.90
13699;DHT22;6921;53.642;9.956;2023-11-19T07:17:24;10.60;99.90
13699;DHT22;6921;53.642;9.956;2023-11-19T07:21:32;10.70;99.90
13699;DHT22;6921;53.642;9.956;2023-11-19T07:23:35;11.30;99.90
13699;DHT22;6921;53.642;9.956;2023-11-19T07:25:39;10.60;99.90
13699;DHT22;6921;53.642;9.956;2023-11-19T07:27:43;10.70;99.90
13699;DHT22;6921;53.642;9.956;2023-11-19T07:31:53;10.50;99.90
13699;DHT22;6921;53.642;9.956;2023-11-19T07:36:02;10.70;99.90
13699;DHT22;6921;53.642;9.956;2023-11-19T07:38:07;10.70;99.90
13699;DHT22;6921;53.642;9.956;2023-11-19T07:40:12;10.70;99.90
13699;DHT22;6921;53.642;9.956;2023-11-19T07:44:21;10.70;99.90
13699;DHT22;6921;53.642;9.956;2023-11-19T07:46:24;10.80;99.90
13699;DHT22;6921;53.642;9.956;2023-11-19T07:48:28;10.80;99.90
13699;DHT22;6921;53.642;9.956;2023-11-19T07:58:44;10.90;99.90
13699;DHT22;6921;53.642;9.956;2023-11-19T08:00:52;10.90;99.90
13699;DHT22;6921;53.642;9.956;2023-11-19T08:02:55;10.70;99.90
13699;DHT22;6921;53.642;9.956;2023-11-19T08:09:04;11.00;99.90
13699;DHT22;6921;53.642;9.956;2023-11-19T08:17:34;11.10;99.90
13699;DHT22;6921;53.642;9.956;2023-11-19T08:32:00;11.10;99.90
13699;DHT22;6921;53.642;9.956;2023-11-19T08:34:05;11.00;99.90
13699;DHT22;6921;53.642;9.956;2023-11-19T08:36:15;11.20;99.90
13699;DHT22;6921;53.642;9.956;2023-11-19T08:38:19;11.40;99.90
13699;DHT22;6921;53.642;9.956;2023-11-19T08:48:41;11.30;99.90
13699;DHT22;6921;53.642;9.956;2023-11-19T08:50:46;11.30;99.90
13699;DHT22;6921;53.642;9.956;2023-11-19T08:54:52;11.50;99.90
13699;DHT22;6921;53.642;9.956;2023-11-19T08:56:55;11.40;99.90
13699;DHT22;6921;53.642;9.956;2023-11-19T08:58:58;11.40;99.90
13699;DHT22;6921;53.642;9.956;2023-11-19T09:01:02;11.20;99.90
13699;DHT22;6921;53.642;9.956;2023-11-19T09:07:13;11.50;99.90
13699;DHT22;6921;53.642;9.956;2023-11-19T09:11:20;11.10;99.90
13699;DHT22;6921;53.642;9.956;2023-11-19T09:13:22;11.40;99.90
13699;DHT22;6921;53.642;9.956;2023-11-19T09:15:25;11.30;99.90
13699;DHT22;6921;53.642;9.956;2023-11-19T09:19:32;11.30;99.90
13699;DHT22;6921;53.642;9.956;2023-11-19T09:23:42;11.30;99.90
13699;DHT22;6921;53.642;9.956;2023-11-19T09:29:54;11.50;99.90
13699;DHT22;6921;53.642;9.956;2023-11-19T09:32:00;9.90;99.90
13699;DHT22;6921;53.642;9.956;2023-11-19T09:34:06;11.50;99.90
13699;DHT22;6921;53.642;9.956;2023-11-19T09:36:11;10.70;99.90
13699;DHT22;6921;53.642;9.956;2023-11-19T09:38:15;11.60;99.90
13699;DHT22;6921;53.642;9.956;2023-11-19T09:40:20;11.60;99.90
13699;DHT22;6921;53.642;9.956;2023-11-19T09:50:41;11.80;99.90
13699;DHT22;6921;53.642;9.956;2023-11-19T09:52:45;11.90;99.90
13699;DHT22;6921;53.642;9.956;2023-11-19T09:54:48;12.00;99.90
13699;DHT22;6921;53.642;9.956;2023-11-19T09:56:53;11.90;99.90
13699;DHT22;6921;53.642;9.956;2023-11-19T09:59:01;12.20;99.90
13699;DHT22;6921;53.642;9.956;2023-11-19T10:01:05;12.70;99.90
13699;DHT22;6921;53.642;9.956;2023-11-19T10:03:14;12.90;99.90
13699;DHT22;6921;53.642;9.956;2023-11-19T10:05:18;13.50;99.90
13699;DHT22;6921;53.642;9.956;2023-11-19T10:07:23;14.30;99.90
13699;DHT22;6921;53.642;9.956;2023-11-19T10:09:28;14.20;99.90
13699;DHT22;6921;53.642;9.956;2023-11-19T10:11:31;14.10;99.90
13699;DHT22;6921;53.642;9.956;2023-11-19T10:13:36;13.90;99.90
13699;DHT22;6921;53.642;9.956;2023-11-19T10:15:40;13.10;99.90
13699;DHT22;6921;53.642;9.956;2023-11-19T10:17:43;13.00;99.90
13699;DHT22;6921;53.642;9.956;2023-11-19T10:19:45;12.80;99.90
13699;DHT22;6921;53.642;9.956;2023-11-19T10:21:48;12.60;99.90
13699;DHT22;6921;53.642;9.956;2023-11-19T10:26:02;12.30;99.90
13699;DHT22;6921;53.642;9.956;2023-11-19T10:28:06;12.20;99.90
13699;DHT22;6921;53.642;9.956;2023-11-19T10:30:12;12.20;99.90
13699;DHT22;6921;53.642;9.956;2023-11-19T10:34:27;12.10;99.90
13699;DHT22;6921;53.642;9.956;2023-11-19T10:36:38;12.10;99.90
13699;DHT22;6921;53.642;9.956;2023-11-19T10:38:56;12.00;99.90
13699;DHT22;6921;53.642;9.956;2023-11-19T10:45:23;12.00;99.90
13699;DHT22;6921;53.642;9.956;2023-11-19T10:49:35;11.70;99.90
13699;DHT22;6921;53.642;9.956;2023-11-19T10:51:45;11.80;99.90
13699;DHT22;6921;53.642;9.956;2023-11-19T10:53:50;11.80;99.90
13699;DHT22;6921;53.642;9.956;2023-11-19T10:55:57;11.70;99.90
13699;DHT22;6921;53.642;9.956;2023-11-19T10:58:02;11.70;99.90
13699;DHT22;6921;53.642;9.956;2023-11-19T11:00:08;11.90;99.90
13699;DHT22;6921;53.642;9.956;2023-11-19T11:02:19;11.90;99.90
13699;DHT22;6921;53.642;9.956;2023-11-19T11:04:25;12.00;99.90
13699;DHT22;6921;53.642;9.956;2023-11-19T11:08:36;12.00;99.90
13699;DHT22;6921;53.642;9.956;2023-11-19T11:10:44;11.80;99.90
13699;DHT22;6921;53.642;9.956;2023-11-19T11:15:00;11.70;99.90
13699;DHT22;6921;53.642;9.956;2023-11-19T11:17:04;11.60;99.90
13699;DHT22;6921;53.642;9.956;2023-11-19T11:19:11;11.80;99.90
13699;DHT22;6921;53.642;9.956;2023-11-19T11:21:17;11.80;99.90
13699;DHT22;6921;53.642;9.956;2023-11-19T11:24:01;11.70;99.90
13699;DHT22;6921;53.642;9.956;2023-11-19T11:26:22;12.00;99.90
13699;DHT22;6921;53.642;9.956;2023-11-19T11:28:35;12.00;99.90
13699;DHT22;6921;53.642;9.956;2023-11-19T11:30:51;12.50;99.90
13699;DHT22;6921;53.642;9.956;2023-11-19T11:33:07;12.80;99.90
13699;DHT22;6921;53.642;9.956;2023-11-19T11:35:31;13.30;99.90
13699;DHT22;6921;53.642;9.956;2023-11-19T11:37:43;13.30;99.90
13699;DHT22;6921;53.642;9.956;2023-11-19T11:39:49;13.50;99.90
13699;DHT22;6921;53.642;9.956;2023-11-19T11:45:00;12.90;99.90
13699;DHT22;6921;53.642;9.956;2023-11-19T11:49:10;12.50;99.90
13699;DHT22;6921;53.642;9.956;2023-11-19T11:51:17;12.50;99.90
13699;DHT22;6921;53.642;9.956;2023-11-19T11:53:22;12.60;99.90
13699;DHT22;6921;53.642;9.956;2023-11-19T11:55:26;12.00;99.90
13699;DHT22;6921;53.642;9.956;2023-11-19T11:57:36;12.10;99.90
13699;DHT22;6921;53.642;9.956;2023-11-19T11:59:48;11.90;99.90
13699;DHT22;6921;53.642;9.956;2023-11-19T12:01:58;11.80;99.90
13699;DHT22;6921;53.642;9.956;2023-11-19T12:04:04;12.00;99.90
13699;DHT22;6921;53.642;9.956;2023-11-19T12:06:08;11.80;99.90
13699;DHT22;6921;53.642;9.956;2023-11-19T12:08:15;11.80;99.90
13699;DHT22;6921;53.642;9.956;2023-11-19T12:10:20;12.00;99.90
13699;DHT22;6921;53.642;9.956;2023-11-19T12:12:27;12.00;99.90
13699;DHT22;6921;53.642;9.956;2023-11-19T12:15:05;12.00;99.90
13699;DHT22;6921;53.642;9.956;2023-11-19T12:17:37;12.10;99.90
13699;DHT22;6921;53.642;9.956;2023-11-19T12:19:42;12.10;99.90
13699;DHT22;6921;53.642;9.956;2023-11-19T12:21:46;12.10;99.90
13699;DHT22;6921;53.642;9.956;2023-11-19T12:23:51;12.00;99.90
13699;DHT22;6921;53.642;9.956;2023-11-19T12:25:53;12.00;99.90
13699;DHT22;6921;53.642;9.956;2023-11-19T12:28:00;12.00;99.90
13699;DHT22;6921;53.642;9.956;2023-11-19T12:30:07;12.10;99.90
13699;DHT22;6921;53.642;9.956;2023-11-19T12:32:10;12.00;99.90
13699;DHT22;6921;53.642;9.956;2023-11-19T12:34:15;12.00;99.90
13699;DHT22;6921;53.642;9.956;2023-11-19T12:36:19;12.00;99.90
13699;DHT22;6921;53.642;9.956;2023-11-19T12:38:24;12.10;99.90
13699;DHT22;6921;53.642;9.956;2023-11-19T12:40:28;12.10;99.90
13699;DHT22;6921;53.642;9.956;2023-11-19T12:42:36;11.90;99.90
13699;DHT22;6921;53.642;9.956;2023-11-19T12:44:38;11.90;99.90
13699;DHT22;6921;53.642;9.956;2023-11-19T12:46:41;11.90;99.90
13699;DHT22;6921;53.642;9.956;2023-11-19T12:48:45;11.80;99.90
13699;DHT22;6921;53.642;9.956;2023-11-19T12:50:53;11.80;99.90
13699;DHT22;6921;53.642;9.956;2023-11-19T12:52:58;11.70;99.90
13699;DHT22;6921;53.642;9.956;2023-11-19T12:55:01;11.80;99.90
13699;DHT22;6921;53.642;9.956;2023-11-19T12:57:06;11.80;99.90
13699;DHT22;6921;53.642;9.956;2023-11-19T12:59:13;11.80;99.90
13699;DHT22;6921;53.642;9.956;2023-11-19T13:01:17;11.90;99.90
13699;DHT22;6921;53.642;9.956;2023-11-19T13:03:29;11.80;99.90
13699;DHT22;6921;53.642;9.956;2023-11-19T13:05:34;11.90;99.90
13699;DHT22;6921;53.642;9.956;2023-11-19T13:07:39;11.80;99.90
13699;DHT22;6921;53.642;9.956;2023-11-19T13:09:41;11.70;99.90
13699;DHT22;6921;53.642;9.956;2023-11-19T13:11:45;11.80;99.90
13699;DHT22;6921;53.642;9.956;2023-11-19T13:13:57;11.80;99.90
13699;DHT22;6921;53.642;9.956;2023-11-19T13:16:05;11.70;99.90
13699;DHT22;6921;53.642;9.956;2023-11-19T13:20:12;11.70;99.90
13699;DHT22;6921;53.642;9.956;2023-11-19T13:22:16;11.90;99.90
13699;DHT22;6921;53.642;9.956;2023-11-19T13:24:19;12.00;99.90
13699;DHT22;6921;53.642;9.956;2023-11-19T13:28:25;11.80;99.90
13699;DHT22;6921;53.642;9.956;2023-11-19T13:30:30;11.80;99.90
13699;DHT22;6921;53.642;9.956;2023-11-19T13:32:34;11.80;99.90
13699;DHT22;6921;53.642;9.956;2023-11-19T13:34:37;11.80;99.90
13699;DHT22;6921;53.642;9.956;2023-11-19T13:36:41;12.00;99.90
13699;DHT22;6921;53.642;9.956;2023-11-19T13:38:44;11.80;99.90
13699;DHT22;6921;53.642;9.956;2023-11-19T13:42:53;11.90;99.90
13699;DHT22;6921;53.642;9.956;2023-11-19T13:47:00;11.90;99.90
13699;DHT22;6921;53.642;9.956;2023-11-19T13:49:04;11.80;99.90
13699;DHT22;6921;53.642;9.956;2023-11-19T13:51:07;11.70;99.90
13699;DHT22;6921;53.642;9.956;2023-11-19T13:53:11;11.70;99.90
13699;DHT22;6921;53.642;9.956;2023-11-19T13:55:15;11.60;99.90
13699;DHT22;6921;53.642;9.956;2023-11-19T13:57:18;11.60;99.90
13699;DHT22;6921;53.642;9.956;2023-11-19T13:59:20;11.70;99.90
13699;DHT22;6921;53.642;9.956;2023-11-19T14:01:23;11.70;99.90
13699;DHT22;6921;53.642;9.956;2023-11-19T14:03:30;11.70;99.90
13699;DHT22;6921;53.642;9.956;2023-11-19T14:07:39;11.70;99.90
13699;DHT22;6921;53.642;9.956;2023-11-19T14:09:43;11.70;99.90
13699;DHT22;6921;53.642;9.956;2023-11-19T14:11:47;12.00;99.90
13699;DHT22;6921;53.642;9.956;2023-11-19T14:13:53;11.70;99.90
13699;DHT22;6921;53.642;9.956;2023-11-19T14:15:56;11.90;99.90
13699;DHT22;6921;53.642;9.956;2023-11-19T14:17:58;11.60;99.90
13699;DHT22;6921;53.642;9.956;2023-11-19T14:20:03;11.70;99.90
13699;DHT22;6921;53.642;9.956;2023-11-19T14:22:14;11.60;99.90
13699;DHT22;6921;53.642;9.956;2023-11-19T14:24:17;11.60;99.90
13699;DHT22;6921;53.642;9.956;2023-11-19T14:32:32;11.40;99.90
13699;DHT22;6921;53.642;9.956;2023-11-19T14:34:35;11.30;99.90
13699;DHT22;6921;53.642;9.956;2023-11-19T14:36:40;11.30;99.90
13699;DHT22;6921;53.642;9.956;2023-11-19T14:38:43;11.20;99.90
13699;DHT22;6921;53.642;9.956;2023-11-19T14:40:47;11.20;99.90
13699;DHT22;6921;53.642;9.956;2023-11-19T14:42:51;11.10;99.90
13699;DHT22;6921;53.642;9.956;2023-11-19T14:44:54;11.00;99.90
13699;DHT22;6921;53.642;9.956;2023-11-19T14:46:57;10.90;99.90
13699;DHT22;6921;53.642;9.956;2023-11-19T14:49:02;10.80;99.90
13699;DHT22;6921;53.642;9.956;2023-11-19T14:51:06;10.60;99.90
13699;DHT22;6921;53.642;9.956;2023-11-19T14:53:11;10.70;99.90
13699;DHT22;6921;53.642;9.956;2023-11-19T14:55:14;10.70;99.90
13699;DHT22;6921;53.642;9.956;2023-11-19T14:57:18;10.50;99.90
13699;DHT22;6921;53.642;9.956;2023-11-19T14:59:21;10.50;99.90
13699;DHT22;6921;53.642;9.956;2023-11-19T15:03:30;10.20;99.90
13699;DHT22;6921;53.642;9.956;2023-11-19T15:07:58;10.30;99.90
13699;DHT22;6921;53.642;9.956;2023-11-19T15:10:03;10.30;99.90
13699;DHT22;6921;53.642;9.956;2023-11-19T15:12:12;10.30;99.90
13699;DHT22;6921;53.642;9.956;2023-11-19T15:14:16;10.20;99.90
13699;DHT22;6921;53.642;9.956;2023-11-19T15:16:21;10.20;99.90
13699;DHT22;6921;53.642;9.956;2023-11-19T15:18:33;10.20;99.90
13699;DHT22;6921;53.642;9.956;2023-11-19T15:22:40;10.10;99.90
13699;DHT22;6921;53.642;9.956;2023-11-19T15:26:50;10.10;99.90
13699;DHT22;6921;53.642;9.956;2023-11-19T15:31:18;10.00;99.90
13699;DHT22;6921;53.642;9.956;2023-11-19T15:33:22;10.00;99.90
13699;DHT22;6921;53.642;9.956;2023-11-19T15:35:27;11.70;99.90
13699;DHT22;6921;53.642;9.956;2023-11-19T15:37:34;10.00;99.90
13699;DHT22;6921;53.642;9.956;2023-11-19T15:41:41;9.70;99.90
13699;DHT22;6921;53.642;9.956;2023-11-19T15:43:46;10.00;99.90
13699;DHT22;6921;53.642;9.956;2023-11-19T15:45:50;10.10;99.90
13699;DHT22;6921;53.642;9.956;2023-11-19T15:47:56;9.80;99.90
13699;DHT22;6921;53.642;9.956;2023-11-19T15:49:59;10.00;99.90
13699;DHT22;6921;53.642;9.956;2023-11-19T15:52:03;10.30;99.90
13699;DHT22;6921;53.642;9.956;2023-11-19T15:54:07;10.10;99.90
13699;DHT22;6921;53.642;9.956;2023-11-19T15:56:11;10.10;99.90
13699;DHT22;6921;53.642;9.956;2023-11-19T15:58:14;10.10;99.90
13699;DHT22;6921;53.642;9.956;2023-11-19T16:00:21;10.10;99.90
13699;DHT22;6921;53.642;9.956;2023-11-19T16:04:28;10.20;99.90
13699;DHT22;6921;53.642;9.956;2023-11-19T16:06:31;10.20;99.90
13699;DHT22;6921;53.642;9.956;2023-11-19T16:08:36;10.20;99.90
13699;DHT22;6921;53.642;9.956;2023-11-19T16:10:40;10.30;99.90
13699;DHT22;6921;53.642;9.956;2023-11-19T16:12:44;10.70;99.90
13699;DHT22;6921;53.642;9.956;2023-11-19T16:14:47;10.60;99.90
13699;DHT22;6921;53.642;9.956;2023-11-19T16:16:52;10.30;99.90
13699;DHT22;6921;53.642;9.956;2023-11-19T16:18:56;10.30;99.90
13699;DHT22;6921;53.642;9.956;2023-11-19T16:21:01;10.60;99.90
13699;DHT22;6921;53.642;9.956;2023-11-19T16:23:09;10.40;99.90
13699;DHT22;6921;53.642;9.956;2023-11-19T16:25:14;10.90;99.90
13699;DHT22;6921;53.642;9.956;2023-11-19T16:29:23;10.30;99.90
13699;DHT22;6921;53.642;9.956;2023-11-19T16:31:27;10.40;99.90
13699;DHT22;6921;53.642;9.956;2023-11-19T16:33:35;10.40;99.90
13699;DHT22;6921;53.642;9.956;2023-11-19T16:35:39;10.50;99.90
13699;DHT22;6921;53.642;9.956;2023-11-19T16:37:42;10.30;99.90
13699;DHT22;6921;53.642;9.956;2023-11-19T16:39:44;10.40;99.90
13699;DHT22;6921;53.642;9.956;2023-11-19T16:41:49;10.50;99.90
13699;DHT22;6921;53.642;9.956;2023-11-19T16:43:53;10.80;99.90
13699;DHT22;6921;53.642;9.956;2023-11-19T16:48:08;10.40;99.90
13699;DHT22;6921;53.642;9.956;2023-11-19T16:50:13;10.40;99.90
13699;DHT22;6921;53.642;9.956;2023-11-19T16:52:18;10.40;99.90
13699;DHT22;6921;53.642;9.956;2023-11-19T16:54:22;10.40;99.90
13699;DHT22;6921;53.642;9.956;2023-11-19T16:58:31;10.40;99.90
13699;DHT22;6921;53.642;9.956;2023-11-19T17:00:35;10.50;99.90
13699;DHT22;6921;53.642;9.956;2023-11-19T17:02:40;10.40;99.90
13699;DHT22;6921;53.642;9.956;2023-11-19T17:04:47;10.60;99.90
13699;DHT22;6921;53.642;9.956;2023-11-19T17:06:52;10.40;99.90
13699;DHT22;6921;53.642;9.956;2023-11-19T17:08:55;10.70;99.90
13699;DHT22;6921;53.642;9.956;2023-11-19T17:10:59;10.40;99.90
13699;DHT22;6921;53.642;9.956;2023-11-19T17:17:34;10.30;99.90
13699;DHT22;6921;53.642;9.956;2023-11-19T17:19:39;10.20;99.90
13699;DHT22;6921;53.642;9.956;2023-11-19T17:21:43;10.20;99.90
13699;DHT22;6921;53.642;9.956;2023-11-19T17:23:49;10.20;99.90
13699;DHT22;6921;53.642;9.956;2023-11-19T17:25:53;10.20;99.90
13699;DHT22;6921;53.642;9.956;2023-11-19T17:27:57;10.60;99.90
13699;DHT22;6921;53.642;9.956;2023-11-19T17:32:06;10.20;99.90
13699;DHT22;6921;53.642;9.956;2023-11-19T17:34:10;10.00;99.90
13699;DHT22;6921;53.642;9.956;2023-11-19T17:36:20;10.20;99.90
13699;DHT22;6921;53.642;9.956;2023-11-19T17:38:32;9.90;99.90
13699;DHT22;6921;53.642;9.956;2023-11-19T17:40:37;9.90;99.90
13699;DHT22;6921;53.642;9.956;2023-11-19T17:47:16;9.90;99.90
13699;DHT22;6921;53.642;9.956;2023-11-19T17:49:19;9.90;99.90
13699;DHT22;6921;53.642;9.956;2023-11-19T17:51:23;9.90;99.90
13699;DHT22;6921;53.642;9.956;2023-11-19T17:53:26;10.70;99.90
13699;DHT22;6921;53.642;9.956;2023-11-19T17:55:29;10.00;99.90
13699;DHT22;6921;53.642;9.956;2023-11-19T17:57:34;10.10;99.90
13699;DHT22;6921;53.642;9.956;2023-11-19T17:59:37;10.00;99.90
13699;DHT22;6921;53.642;9.956;2023-11-19T18:01:40;9.90;99.90
13699;DHT22;6921;53.642;9.956;2023-11-19T18:03:44;10.20;99.90
13699;DHT22;6921;53.642;9.956;2023-11-19T18:07:51;9.90;99.90
13699;DHT22;6921;53.642;9.956;2023-11-19T18:11:57;10.10;99.90
13699;DHT22;6921;53.642;9.956;2023-11-19T18:14:07;9.90;99.90
13699;DHT22;6921;53.642;9.956;2023-11-19T18:16:11;9.90;99.90
13699;DHT22;6921;53.642;9.956;2023-11-19T18:18:16;9.90;99.90
13699;DHT22;6921;53.642;9.956;2023-11-19T18:20:20;9.90;99.90
13699;DHT22;6921;53.642;9.956;2023-11-19T18:22:24;9.90;99.90
13699;DHT22;6921;53.642;9.956;2023-11-19T18:24:27;10.00;99.90
13699;DHT22;6921;53.642;9.956;2023-11-19T18:26:31;10.20;99.90
13699;DHT22;6921;53.642;9.956;2023-11-19T18:28:37;10.00;99.90
13699;DHT22;6921;53.642;9.956;2023-11-19T18:30:43;9.80;99.90
13699;DHT22;6921;53.642;9.956;2023-11-19T18:36:55;10.00;99.90
13699;DHT22;6921;53.642;9.956;2023-11-19T18:39:01;10.10;99.90
13699;DHT22;6921;53.642;9.956;2023-11-19T18:41:06;10.10;99.90
13699;DHT22;6921;53.642;9.956;2023-11-19T18:43:10;11.00;99.90
13699;DHT22;6921;53.642;9.956;2023-11-19T18:45:15;10.10;99.90
13699;DHT22;6921;53.642;9.956;2023-11-19T18:47:20;10.10;99.90
13699;DHT22;6921;53.642;9.956;2023-11-19T18:51:30;10.10;99.90
13699;DHT22;6921;53.642;9.956;2023-11-19T18:53:34;10.10;99.90
13699;DHT22;6921;53.642;9.956;2023-11-19T18:55:37;10.50;99.90
13699;DHT22;6921;53.642;9.956;2023-11-19T18:57:41;10.20;99.90
13699;DHT22;6921;53.642;9.956;2023-11-19T18:59:45;10.20;99.90
13699;DHT22;6921;53.642;9.956;2023-11-19T19:03:55;10.20;99.90
13699;DHT22;6921;53.642;9.956;2023-11-19T19:06:03;10.20;99.90
13699;DHT22;6921;53.642;9.956;2023-11-19T19:08:08;10.20;99.90
13699;DHT22;6921;53.642;9.956;2023-11-19T19:10:11;10.20;99.90
13699;DHT22;6921;53.642;9.956;2023-11-19T19:12:15;10.20;99.90
13699;DHT22;6921;53.642;9.956;2023-11-19T19:14:19;10.20;99.90
13699;DHT22;6921;53.642;9.956;2023-11-19T19:16:22;10.30;99.90
13699;DHT22;6921;53.642;9.956;2023-11-19T19:18:32;10.20;99.90
13699;DHT22;6921;53.642;9.956;2023-11-19T19:20:39;10.30;99.90
13699;DHT22;6921;53.642;9.956;2023-11-19T19:22:42;10.30;99.90
13699;DHT22;6921;53.642;9.956;2023-11-19T19:24:48;10.30;99.90
13699;DHT22;6921;53.642;9.956;2023-11-19T19:26:52;10.60;99.90
13699;DHT22;6921;53.642;9.956;2023-11-19T19:28:56;10.40;99.90
13699;DHT22;6921;53.642;9.956;2023-11-19T19:31:00;10.60;99.90
13699;DHT22;6921;53.642;9.956;2023-11-19T19:33:03;11.10;99.90
13699;DHT22;6921;53.642;9.956;2023-11-19T19:35:07;10.50;99.90
13699;DHT22;6921;53.642;9.956;2023-11-19T19:37:12;10.40;99.90
13699;DHT22;6921;53.642;9.956;2023-11-19T19:39:15;10.40;99.90
13699;DHT22;6921;53.642;9.956;2023-11-19T19:41:19;10.40;99.90
13699;DHT22;6921;53.642;9.956;2023-11-19T19:43:27;10.50;99.90
13699;DHT22;6921;53.642;9.956;2023-11-19T19:45:31;10.40;99.90
13699;DHT22;6921;53.642;9.956;2023-11-19T19:47:38;10.40;99.90
13699;DHT22;6921;53.642;9.956;2023-11-19T19:53:50;10.50;99.90
13699;DHT22;6921;53.642;9.956;2023-11-19T19:55:52;10.50;99.90
13699;DHT22;6921;53.642;9.956;2023-11-19T19:57:56;10.80;99.90
13699;DHT22;6921;53.642;9.956;2023-11-19T20:00:00;10.50;99.90
13699;DHT22;6921;53.642;9.956;2023-11-19T20:02:08;10.50;99.90
13699;DHT22;6921;53.642;9.956;2023-11-19T20:06:16;10.70;99.90
13699;DHT22;6921;53.642;9.956;2023-11-19T20:08:22;10.50;99.90
13699;DHT22;6921;53.642;9.956;2023-11-19T20:10:26;10.50;99.90
13699;DHT22;6921;53.642;9.956;2023-11-19T20:12:34;10.50;99.90
13699;DHT22;6921;53.642;9.956;2023-11-19T20:14:38;10.50;99.90
13699;DHT22;6921;53.642;9.956;2023-11-19T20:16:42;10.50;99.90
13699;DHT22;6921;53.642;9.956;2023-11-19T20:18:46;10.50;99.90
13699;DHT22;6921;53.642;9.956;2023-11-19T20:20:49;10.50;99.90
13699;DHT22;6921;53.642;9.956;2023-11-19T20:22:52;10.40;99.90
13699;DHT22;6921;53.642;9.956;2023-11-19T20:24:55;10.50;99.90
13699;DHT22;6921;53.642;9.956;2023-11-19T20:27:01;10.50;99.90
13699;DHT22;6921;53.642;9.956;2023-11-19T20:29:05;10.50;99.90
13699;DHT22;6921;53.642;9.956;2023-11-19T20:31:10;10.50;99.90
13699;DHT22;6921;53.642;9.956;2023-11-19T20:33:16;11.10;99.90
13699;DHT22;6921;53.642;9.956;2023-11-19T20:37:26;10.50;99.90
13699;DHT22;6921;53.642;9.956;2023-11-19T20:39:35;10.50;99.90
13699;DHT22;6921;53.642;9.956;2023-11-19T20:41:40;11.20;99.90
13699;DHT22;6921;53.642;9.956;2023-11-19T20:43:46;10.40;99.90
13699;DHT22;6921;53.642;9.956;2023-11-19T20:45:52;10.60;99.90
13699;DHT22;6921;53.642;9.956;2023-11-19T20:47:59;10.80;99.90
13699;DHT22;6921;53.642;9.956;2023-11-19T20:50:03;10.50;99.90
13699;DHT22;6921;53.642;9.956;2023-11-19T20:54:11;10.50;99.90
13699;DHT22;6921;53.642;9.956;2023-11-19T20:56:14;10.50;99.90
13699;DHT22;6921;53.642;9.956;2023-11-19T20:58:22;10.50;99.90
13699;DHT22;6921;53.642;9.956;2023-11-19T21:00:29;10.50;99.90
13699;DHT22;6921;53.642;9.956;2023-11-19T21:02:33;10.50;99.90
13699;DHT22;6921;53.642;9.956;2023-11-19T21:04:36;10.50;99.90
13699;DHT22;6921;53.642;9.956;2023-11-19T21:06:39;10.40;99.90
13699;DHT22;6921;53.642;9.956;2023-11-19T21:08:46;10.40;99.90
13699;DHT22;6921;53.642;9.956;2023-11-19T21:10:49;10.40;99.90
13699;DHT22;6921;53.642;9.956;2023-11-19T21:14:56;10.00;99.90
13699;DHT22;6921;53.642;9.956;2023-11-19T21:17:03;10.40;99.90
13699;DHT22;6921;53.642;9.956;2023-11-19T21:19:07;10.40;99.90
13699;DHT22;6921;53.642;9.956;2023-11-19T21:21:15;10.40;99.90
13699;DHT22;6921;53.642;9.956;2023-11-19T21:23:18;10.40;99.90
13699;DHT22;6921;53.642;9.956;2023-11-19T21:25:23;10.40;99.90
13699;DHT22;6921;53.642;9.956;2023-11-19T21:27:25;10.60;99.90
13699;DHT22;6921;53.642;9.956;2023-11-19T21:29:31;10.50;99.90
13699;DHT22;6921;53.642;9.956;2023-11-19T21:31:36;10.50;99.90
13699;DHT22;6921;53.642;9.956;2023-11-19T21:33:43;10.50;99.90
13699;DHT22;6921;53.642;9.956;2023-11-19T21:37:49;10.70;99.90
13699;DHT22;6921;53.642;9.956;2023-11-19T21:39:53;10.40;99.90
13699;DHT22;6921;53.642;9.956;2023-11-19T21:41:56;10.50;99.90
13699;DHT22;6921;53.642;9.956;2023-11-19T21:43:59;11.10;99.90